Hansa Limburg — A8IH6 — position and weather

sailwx.info

Track history (hours):
 
Tides and Currents Weather Stations Pressure Air Temp Water Temp Dewpoint Dewpoint Depression Visibility Wind Speed Wind Dir Waves Ship Positions

Hansa Limburg

Last reported at 2017-Aug-19 03:52 UTC. Time now 2017-Aug-19 16:52 UTC.
Position N 41°30' E 029°04'.

Length 175.5 m; beam 27.4 m; draft 10.9 m.

Type: Ship (hazmat cat A). MMSI: 636090980.

Date/timePositionNaut miles runAvg speedWind from/ knotsBaromVisibWave heightAir tempDewpointWater temp
2017-Aug-19 03:52N 41°30' E 029°04'1 1.1
2017-Aug-19 03:20N 41°30' E 029°04'0 1.2
2017-Aug-19 03:00N 41°31' E 029°03'6 1.0
2017-Aug-18 21:15N 41°25' E 029°04'1 0.7
2017-Aug-18 19:37N 41°26' E 029°03'2 0.9
2017-Aug-18 17:46N 41°27' E 029°03'0 0.9
2017-Aug-18 17:26N 41°28' E 029°03'0 0.8
2017-Aug-18 16:59N 41°28' E 029°03'0 0.8
2017-Aug-18 16:30N 41°28' E 029°03'2 0.9
2017-Aug-18 14:48N 41°30' E 029°03'0 0.9
2017-Aug-18 14:31N 41°30' E 029°03'1 0.8
2017-Aug-18 13:00N 41°31' E 029°02'7 3.8
2017-Aug-18 11:09N 41°24' E 029°05'1 1.1
2017-Aug-18 10:21N 41°25' E 029°04'0 1.0
2017-Aug-18 10:00N 41°25' E 029°04'0 0.9
2017-Aug-18 09:30N 41°26' E 029°04'0 0.9
2017-Aug-18 09:00N 41°26' E 029°04'0 1.0
2017-Aug-18 08:30N 41°27' E 029°04'3 1.0
2017-Aug-18 05:37N 41°29' E 029°02'0 1.6
2017-Aug-18 05:30N 41°29' E 029°02'4 7.9
2017-Aug-18 04:56N 41°25' E 029°05'2 1.5
2017-Aug-18 03:19N 41°25' E 029°08'0 1.1
2017-Aug-18 02:58N 41°25' E 029°08'3 1.0
2017-Aug-17 23:57N 41°28' E 029°06'1 0.9
2017-Aug-17 22:44N 41°29' E 029°06'1 0.9
2017-Aug-17 22:06N 41°29' E 029°05'0 0.9
2017-Aug-17 21:59N 41°30' E 029°05'0 1.0
2017-Aug-17 21:30N 41°30' E 029°05'1 2.1
2017-Aug-17 20:58N 41°29' E 029°05'510.3
2017-Aug-17 20:30N 41°24' E 029°07'1 1.8
2017-Aug-17 20:00N 41°23' E 029°07'0 0.9
2017-Aug-17 19:28N 41°24' E 029°06'0 0.9
2017-Aug-17 18:58N 41°24' E 029°06'1 0.9
2017-Aug-17 18:19N 41°25' E 029°06'0 0.9
2017-Aug-17 18:00N 41°25' E 029°05'0 0.9
2017-Aug-17 17:30N 41°25' E 029°05'0 0.9
2017-Aug-17 17:00N 41°26' E 029°05'0 0.9
2017-Aug-17 16:30N 41°26' E 029°05'0 0.9
2017-Aug-17 16:00N 41°26' E 029°04'0 0.9
2017-Aug-17 15:30N 41°27' E 029°04'0 0.8
2017-Aug-17 15:00N 41°27' E 029°04'0 0.7
2017-Aug-17 14:30N 41°28' E 029°04'4 8.2
2017-Aug-17 14:00N 41°32' E 029°04'816.5
2017-Aug-17 13:30N 41°40' E 029°05'918.1
2017-Aug-17 13:00N 41°49' E 029°04'917.7
2017-Aug-17 12:30N 41°58' E 029°03'918.0
2017-Aug-17 12:00N 42°07' E 029°02'1218.2
2017-Aug-17 11:21N 42°19' E 029°01'718.2
2017-Aug-17 10:59N 42°25' E 029°01'917.9
2017-Aug-17 10:30N 42°34' E 028°60'918.0
2017-Aug-17 10:00N 42°43' E 028°58'917.8
2017-Aug-17 09:30N 42°52' E 028°57'1018.0
2017-Aug-17 08:56N 43°02' E 028°56'818.1
2017-Aug-17 08:30N 43°10' E 028°55'917.9
2017-Aug-17 08:00N 43°19' E 028°53'918.1
2017-Aug-17 07:30N 43°28' E 028°53'918.1
2017-Aug-17 07:01N 43°37' E 028°51'918.6
2017-Aug-17 06:30N 43°46' E 028°50'918.4
2017-Aug-17 06:01N 43°55' E 028°49'918.0
2017-Aug-17 05:31N 44°03' E 028°44'5 9.0
2017-Aug-17 05:00N 44°07' E 028°40'0 0.7
2017-Aug-17 04:28N 44°06' E 028°40'0 0.0
2017-Aug-17 04:01N 44°06' E 028°40'0 0.0
2017-Aug-17 03:31N 44°06' E 028°40'0 0.0
2017-Aug-17 03:00N 44°06' E 028°40'0 0.0
2017-Aug-17 02:30N 44°06' E 028°40'0 0.0
2017-Aug-17 02:00N 44°06' E 028°40'0 0.0
2017-Aug-17 01:30N 44°06' E 028°40'0 0.0
2017-Aug-17 00:57N 44°06' E 028°40'0 0.0
2017-Aug-17 00:30N 44°06' E 028°40'0 0.0
2017-Aug-17 00:00N 44°06' E 028°40'0 0.0
2017-Aug-16 23:30N 44°06' E 028°40'0 0.0
2017-Aug-16 23:00N 44°06' E 028°40'0 0.0
2017-Aug-16 22:30N 44°06' E 028°40'0 0.0
2017-Aug-16 22:00N 44°06' E 028°40'0 0.0
2017-Aug-16 21:30N 44°06' E 028°40'0 0.0
2017-Aug-16 20:57N 44°06' E 028°40'0 0.0
2017-Aug-16 20:30N 44°06' E 028°40'0 0.0
2017-Aug-16 20:00N 44°06' E 028°40'0 0.0
2017-Aug-16 19:30N 44°06' E 028°40'0 0.0
2017-Aug-16 19:00N 44°06' E 028°40'0 0.0
2017-Aug-16 18:30N 44°06' E 028°40'0 0.0
2017-Aug-16 18:00N 44°06' E 028°40'0 0.0
2017-Aug-16 17:30N 44°06' E 028°40'0 0.0
2017-Aug-16 17:00N 44°06' E 028°40'0 0.0
2017-Aug-16 16:30N 44°06' E 028°40'0 0.0
2017-Aug-16 16:01N 44°06' E 028°40'0 0.0
2017-Aug-16 15:31N 44°06' E 028°40'0 0.0
2017-Aug-16 15:01N 44°06' E 028°40'0 0.0
2017-Aug-16 14:31N 44°06' E 028°40'0 0.0
2017-Aug-16 14:01N 44°06' E 028°40'0 0.0
2017-Aug-16 13:31N 44°06' E 028°40'0 0.0
2017-Aug-16 13:00N 44°06' E 028°40'0 0.0
2017-Aug-16 12:30N 44°06' E 028°40'0 0.0
2017-Aug-16 12:00N 44°06' E 028°40'0 0.0
2017-Aug-16 11:30N 44°06' E 028°40'0 0.0
2017-Aug-16 11:00N 44°06' E 028°40'0 0.0
2017-Aug-16 10:30N 44°06' E 028°40'0 0.0
2017-Aug-16 10:00N 44°06' E 028°40'0 0.0
2017-Aug-16 09:30N 44°06' E 028°40'0 0.0
2017-Aug-16 09:00N 44°06' E 028°40'0 0.0
2017-Aug-16 08:30N 44°06' E 028°40'0 0.0
2017-Aug-16 07:57N 44°06' E 028°40'0 0.0
2017-Aug-16 07:24N 44°06' E 028°40'0 0.0
2017-Aug-16 07:00N 44°06' E 028°40'1 1.0
2017-Aug-16 06:30N 44°06' E 028°40'2 4.7
2017-Aug-16 06:00N 44°05' E 028°43'611.9
2017-Aug-16 05:30N 44°05' E 028°51'714.7
2017-Aug-16 05:01N 44°06' E 029°01'815.2
2017-Aug-16 04:30N 44°10' E 029°10'815.1
2017-Aug-16 04:00N 44°15' E 029°18'815.3
2017-Aug-16 03:30N 44°19' E 029°27'815.3
2017-Aug-16 03:00N 44°24' E 029°36'12314.0
2017-Aug-15 18:11N 46°14' E 030°56'315.0
2017-Aug-15 17:59N 46°16' E 030°53'715.7
2017-Aug-15 17:30N 46°23' E 030°51'714.0
2017-Aug-15 17:00N 46°30' E 030°47'1 1.3
2017-Aug-15 16:00N 46°29' E 030°45'0 0.0
2017-Aug-15 15:30N 46°29' E 030°45'0 0.0
2017-Aug-15 14:00N 46°29' E 030°45'0 0.0
2017-Aug-15 12:12N 46°29' E 030°45'0 0.0
2017-Aug-15 12:00N 46°29' E 030°45'0 0.0
2017-Aug-15 11:27N 46°29' E 030°45'0 0.0
2017-Aug-15 11:00N 46°29' E 030°45'0 0.0
2017-Aug-15 10:30N 46°29' E 030°45'0 0.0
2017-Aug-15 10:00N 46°29' E 030°45'0 0.0
2017-Aug-15 09:30N 46°29' E 030°45'0 0.0
2017-Aug-15 09:00N 46°29' E 030°45'0 0.0
2017-Aug-15 08:30N 46°29' E 030°45'0 0.0
2017-Aug-15 08:00N 46°29' E 030°45'0 0.0
2017-Aug-15 07:23N 46°29' E 030°45'0 0.0
2017-Aug-15 06:59N 46°29' E 030°45'0 0.0
2017-Aug-15 06:29N 46°29' E 030°45'0 0.0
2017-Aug-15 05:59N 46°29' E 030°45'0 0.0
2017-Aug-15 05:29N 46°29' E 030°45'0 0.0
2017-Aug-15 04:59N 46°29' E 030°45'0 0.0
2017-Aug-15 04:29N 46°29' E 030°45'0 0.0
2017-Aug-15 03:59N 46°29' E 030°45'0 0.0
2017-Aug-15 03:30N 46°29' E 030°45'2 3.9
2017-Aug-15 03:00N 46°30' E 030°48'4 7.7
2017-Aug-15 02:30N 46°27' E 030°51'611.9
2017-Aug-15 02:00N 46°21' E 030°53'611.6
2017-Aug-15 01:30N 46°16' E 030°58'611.8
2017-Aug-15 01:00N 46°12' E 031°04'612.1
2017-Aug-15 00:30N 46°08' E 031°10'612.4
2017-Aug-15 00:00N 46°03' E 031°17'27812.1
2017-Aug-14 01:08N 44°27' E 037°26'515.1
2017-Aug-14 00:50N 44°29' E 037°32'515.2
2017-Aug-14 00:29N 44°31' E 037°38'714.6
2017-Aug-14 00:00N 44°35' E 037°47'611.4
2017-Aug-13 23:30N 44°40' E 037°50'3 6.8
2017-Aug-13 23:00N 44°43' E 037°49'0 0.0
2017-Aug-13 22:29N 44°43' E 037°49'0 0.0
2017-Aug-13 21:59N 44°43' E 037°49'0 0.0
2017-Aug-13 21:29N 44°43' E 037°49'0 0.0
2017-Aug-13 20:59N 44°43' E 037°49'0 0.0
2017-Aug-13 20:29N 44°43' E 037°49'0 0.0
2017-Aug-13 19:53N 44°43' E 037°49'0 0.0
2017-Aug-13 19:29N 44°43' E 037°49'0 0.0
2017-Aug-13 18:59N 44°43' E 037°49'0 0.0
2017-Aug-13 18:29N 44°43' E 037°49'0 0.0
2017-Aug-13 17:59N 44°43' E 037°49'0 0.0
2017-Aug-13 17:29N 44°43' E 037°49'0 0.0
2017-Aug-13 16:59N 44°43' E 037°49'0 0.0
2017-Aug-13 16:29N 44°43' E 037°49'0 0.0
2017-Aug-13 15:59N 44°43' E 037°49'0 0.0
2017-Aug-13 15:29N 44°43' E 037°49'0 0.0
2017-Aug-13 14:56N 44°43' E 037°49'0 0.0
2017-Aug-13 14:29N 44°43' E 037°49'0 0.0
2017-Aug-13 13:59N 44°43' E 037°49'0 0.0
2017-Aug-13 13:29N 44°43' E 037°49'0 0.0
2017-Aug-13 12:59N 44°43' E 037°49'0 0.0
2017-Aug-13 12:29N 44°43' E 037°49'0 0.0
2017-Aug-13 12:00N 44°43' E 037°49'0 0.0
2017-Aug-13 11:31N 44°43' E 037°49'0 0.0
2017-Aug-13 11:00N 44°43' E 037°49'0 0.0
2017-Aug-13 10:30N 44°43' E 037°49'0 0.0
2017-Aug-13 09:59N 44°43' E 037°49'0 0.0
2017-Aug-13 08:20N 44°43' E 037°49'0 0.0
2017-Aug-13 07:26N 44°43' E 037°49'0 0.0
2017-Aug-13 06:59N 44°43' E 037°49'0 0.0
2017-Aug-13 06:29N 44°43' E 037°49'0 0.0
2017-Aug-13 05:58N 44°43' E 037°49'0 0.0
2017-Aug-13 05:28N 44°43' E 037°49'0 0.0
2017-Aug-13 04:58N 44°43' E 037°49'0 0.0
2017-Aug-13 04:28N 44°43' E 037°49'0 0.0
2017-Aug-13 03:58N 44°43' E 037°49'0 0.0
2017-Aug-13 03:28N 44°43' E 037°49'0 0.0
2017-Aug-13 02:58N 44°43' E 037°49'0 0.0
2017-Aug-13 02:28N 44°43' E 037°49'0 0.0
2017-Aug-13 01:58N 44°43' E 037°49'0 0.0
2017-Aug-13 01:28N 44°43' E 037°49'0 0.0
2017-Aug-13 00:58N 44°43' E 037°49'0 0.0
2017-Aug-13 00:28N 44°43' E 037°49'0 0.0
2017-Aug-12 23:58N 44°43' E 037°49'0 0.0
2017-Aug-12 23:28N 44°43' E 037°49'0 0.0
2017-Aug-12 22:58N 44°43' E 037°49'0 0.0
2017-Aug-12 21:55N 44°43' E 037°49'0 0.0
2017-Aug-12 21:30N 44°43' E 037°49'1 1.3
2017-Aug-12 21:00N 44°43' E 037°48'4 7.8
2017-Aug-12 20:30N 44°39' E 037°51'5 9.1
2017-Aug-12 20:01N 44°35' E 037°51'714.8
2017-Aug-12 19:30N 44°31' E 037°42'815.2
2017-Aug-12 19:00N 44°28' E 037°32'2 3.1
2017-Aug-12 18:28N 44°27' E 037°30'0 0.6
2017-Aug-12 17:57N 44°27' E 037°30'0 0.6
2017-Aug-12 17:17N 44°27' E 037°31'0 0.6
2017-Aug-12 16:58N 44°27' E 037°31'0 0.6
2017-Aug-12 16:29N 44°28' E 037°31'0 0.6
2017-Aug-12 16:00N 44°28' E 037°32'0 0.5
2017-Aug-12 15:30N 44°28' E 037°32'0 0.4
2017-Aug-12 14:59N 44°28' E 037°32'0 0.4
2017-Aug-12 14:30N 44°28' E 037°32'0 0.4
2017-Aug-12 14:00N 44°28' E 037°33'0 0.5
2017-Aug-12 13:19N 44°27' E 037°33'0 0.7
2017-Aug-12 13:00N 44°27' E 037°33'0 0.7
2017-Aug-12 12:29N 44°27' E 037°33'1 0.7
2017-Aug-12 11:05N 44°26' E 037°34'0 0.9
2017-Aug-12 10:48N 44°26' E 037°34'0 0.9
2017-Aug-12 10:27N 44°26' E 037°34'0 1.0
2017-Aug-12 10:00N 44°25' E 037°35'1 1.1
2017-Aug-12 08:58N 44°24' E 037°35'0 1.0
2017-Aug-12 08:30N 44°24' E 037°36'1 1.5
2017-Aug-12 08:00N 44°24' E 037°36'4 8.2
2017-Aug-12 07:30N 44°28' E 037°35'1 1.2
2017-Aug-12 06:55N 44°28' E 037°36'1 1.0
2017-Aug-12 05:57N 44°28' E 037°37'0 1.0
2017-Aug-12 05:31N 44°28' E 037°38'0 0.9
2017-Aug-12 05:00N 44°27' E 037°39'0 1.0
2017-Aug-12 04:30N 44°27' E 037°39'0 0.9
2017-Aug-12 04:00N 44°27' E 037°40'0 0.6
2017-Aug-12 03:30N 44°27' E 037°40'1 1.7
2017-Aug-12 03:00N 44°27' E 037°39'612.1
2017-Aug-12 02:30N 44°24' E 037°32'814.8
2017-Aug-12 01:59N 44°20' E 037°22'2916.2
2017-Aug-12 00:12N 44°08' E 036°46'716.5
2017-Aug-11 23:44N 44°05' E 036°37'616.2
2017-Aug-11 23:23N 44°02' E 036°30'15516.4
2017-Aug-11 13:58N 42°51' E 033°20'715.7
2017-Aug-11 13:30N 42°48' E 033°11'3616.1
2017-Aug-11 11:17N 42°31' E 032°28'416.4
2017-Aug-11 11:00N 42°29' E 032°23'816.3
2017-Aug-11 10:30N 42°25' E 032°13'816.3
2017-Aug-11 10:00N 42°21' E 032°03'816.3
2017-Aug-11 09:30N 42°18' E 031°53'816.4
2017-Aug-11 09:00N 42°14' E 031°43'816.4
2017-Aug-11 08:30N 42°10' E 031°34'816.3
2017-Aug-11 08:00N 42°06' E 031°24'916.3
2017-Aug-11 07:28N 42°02' E 031°13'1716.5
2017-Aug-11 06:26N 41°55' E 030°53'1816.3
2017-Aug-11 05:20N 41°46' E 030°32'716.2
2017-Aug-11 04:56N 41°43' E 030°24'1016.2
2017-Aug-11 04:19N 41°39' E 030°12'516.3
2017-Aug-11 04:00N 41°36' E 030°06'816.2
2017-Aug-11 03:30N 41°32' E 029°57'916.2
2017-Aug-11 02:58N 41°29' E 029°46'716.2
2017-Aug-11 02:30N 41°25' E 029°37'1216.1
2017-Aug-11 01:47N 41°20' E 029°24'3410.7
2017-Aug-10 22:37N 40°53' E 028°55'111.9
2017-Aug-10 22:30N 40°53' E 028°54'711.5
2017-Aug-10 21:53N 40°48' E 028°47'  
Track history (hours):
 
Tides and Currents Weather Stations Pressure Air Temp Water Temp Dewpoint Dewpoint Depression Visibility Wind Speed Wind Dir Waves Ship Positions

Hansa Limburg

Last reported at 2017-Aug-19 03:52 UTC. Time now 2017-Aug-19 16:52 UTC.
Position N 41°30' E 029°04'.

Length 175.5 m; beam 27.4 m; draft 10.9 m.

Type: Ship (hazmat cat A). MMSI: 636090980.

Date/timePositionNaut miles runAvg speedWind from/ knotsBaromVisibWave heightAir tempDewpointWater temp
2017-Aug-19 03:52N 41°30' E 029°04'1 1.1
2017-Aug-19 03:20N 41°30' E 029°04'0 1.2
2017-Aug-19 03:00N 41°31' E 029°03'6 1.0
2017-Aug-18 21:15N 41°25' E 029°04'1 0.7
2017-Aug-18 19:37N 41°26' E 029°03'2 0.9
2017-Aug-18 17:46N 41°27' E 029°03'0 0.9
2017-Aug-18 17:26N 41°28' E 029°03'0 0.8
2017-Aug-18 16:59N 41°28' E 029°03'0 0.8
2017-Aug-18 16:30N 41°28' E 029°03'2 0.9
2017-Aug-18 14:48N 41°30' E 029°03'0 0.9
2017-Aug-18 14:31N 41°30' E 029°03'1 0.8
2017-Aug-18 13:00N 41°31' E 029°02'7 3.8
2017-Aug-18 11:09N 41°24' E 029°05'1 1.1
2017-Aug-18 10:21N 41°25' E 029°04'0 1.0
2017-Aug-18 10:00N 41°25' E 029°04'0 0.9
2017-Aug-18 09:30N 41°26' E 029°04'0 0.9
2017-Aug-18 09:00N 41°26' E 029°04'0 1.0
2017-Aug-18 08:30N 41°27' E 029°04'3 1.0
2017-Aug-18 05:37N 41°29' E 029°02'0 1.6
2017-Aug-18 05:30N 41°29' E 029°02'4 7.9
2017-Aug-18 04:56N 41°25' E 029°05'2 1.5
2017-Aug-18 03:19N 41°25' E 029°08'0 1.1
2017-Aug-18 02:58N 41°25' E 029°08'3 1.0
2017-Aug-17 23:57N 41°28' E 029°06'1 0.9
2017-Aug-17 22:44N 41°29' E 029°06'1 0.9
2017-Aug-17 22:06N 41°29' E 029°05'0 0.9
2017-Aug-17 21:59N 41°30' E 029°05'0 1.0
2017-Aug-17 21:30N 41°30' E 029°05'1 2.1
2017-Aug-17 20:58N 41°29' E 029°05'510.3
2017-Aug-17 20:30N 41°24' E 029°07'1 1.8
2017-Aug-17 20:00N 41°23' E 029°07'0 0.9
2017-Aug-17 19:28N 41°24' E 029°06'0 0.9
2017-Aug-17 18:58N 41°24' E 029°06'1 0.9
2017-Aug-17 18:19N 41°25' E 029°06'0 0.9
2017-Aug-17 18:00N 41°25' E 029°05'0 0.9
2017-Aug-17 17:30N 41°25' E 029°05'0 0.9
2017-Aug-17 17:00N 41°26' E 029°05'0 0.9
2017-Aug-17 16:30N 41°26' E 029°05'0 0.9
2017-Aug-17 16:00N 41°26' E 029°04'0 0.9
2017-Aug-17 15:30N 41°27' E 029°04'0 0.8
2017-Aug-17 15:00N 41°27' E 029°04'0 0.7
2017-Aug-17 14:30N 41°28' E 029°04'4 8.2
2017-Aug-17 14:00N 41°32' E 029°04'816.5
2017-Aug-17 13:30N 41°40' E 029°05'918.1
2017-Aug-17 13:00N 41°49' E 029°04'917.7
2017-Aug-17 12:30N 41°58' E 029°03'918.0
2017-Aug-17 12:00N 42°07' E 029°02'1218.2
2017-Aug-17 11:21N 42°19' E 029°01'718.2
2017-Aug-17 10:59N 42°25' E 029°01'917.9
2017-Aug-17 10:30N 42°34' E 028°60'918.0
2017-Aug-17 10:00N 42°43' E 028°58'917.8
2017-Aug-17 09:30N 42°52' E 028°57'1018.0
2017-Aug-17 08:56N 43°02' E 028°56'818.1
2017-Aug-17 08:30N 43°10' E 028°55'917.9
2017-Aug-17 08:00N 43°19' E 028°53'918.1
2017-Aug-17 07:30N 43°28' E 028°53'918.1
2017-Aug-17 07:01N 43°37' E 028°51'918.6
2017-Aug-17 06:30N 43°46' E 028°50'918.4
2017-Aug-17 06:01N 43°55' E 028°49'918.0
2017-Aug-17 05:31N 44°03' E 028°44'5 9.0
2017-Aug-17 05:00N 44°07' E 028°40'0 0.7
2017-Aug-17 04:28N 44°06' E 028°40'0 0.0
2017-Aug-17 04:01N 44°06' E 028°40'0 0.0
2017-Aug-17 03:31N 44°06' E 028°40'0 0.0
2017-Aug-17 03:00N 44°06' E 028°40'0 0.0
2017-Aug-17 02:30N 44°06' E 028°40'0 0.0
2017-Aug-17 02:00N 44°06' E 028°40'0 0.0
2017-Aug-17 01:30N 44°06' E 028°40'0 0.0
2017-Aug-17 00:57N 44°06' E 028°40'0 0.0
2017-Aug-17 00:30N 44°06' E 028°40'0 0.0
2017-Aug-17 00:00N 44°06' E 028°40'0 0.0
2017-Aug-16 23:30N 44°06' E 028°40'0 0.0
2017-Aug-16 23:00N 44°06' E 028°40'0 0.0
2017-Aug-16 22:30N 44°06' E 028°40'0 0.0
2017-Aug-16 22:00N 44°06' E 028°40'0 0.0
2017-Aug-16 21:30N 44°06' E 028°40'0 0.0
2017-Aug-16 20:57N 44°06' E 028°40'0 0.0
2017-Aug-16 20:30N 44°06' E 028°40'0 0.0
2017-Aug-16 20:00N 44°06' E 028°40'0 0.0
2017-Aug-16 19:30N 44°06' E 028°40'0 0.0
2017-Aug-16 19:00N 44°06' E 028°40'0 0.0
2017-Aug-16 18:30N 44°06' E 028°40'0 0.0
2017-Aug-16 18:00N 44°06' E 028°40'0 0.0
2017-Aug-16 17:30N 44°06' E 028°40'0 0.0
2017-Aug-16 17:00N 44°06' E 028°40'0 0.0
2017-Aug-16 16:30N 44°06' E 028°40'0 0.0
2017-Aug-16 16:01N 44°06' E 028°40'0 0.0
2017-Aug-16 15:31N 44°06' E 028°40'0 0.0
2017-Aug-16 15:01N 44°06' E 028°40'0 0.0
2017-Aug-16 14:31N 44°06' E 028°40'0 0.0
2017-Aug-16 14:01N 44°06' E 028°40'0 0.0
2017-Aug-16 13:31N 44°06' E 028°40'0 0.0
2017-Aug-16 13:00N 44°06' E 028°40'0 0.0
2017-Aug-16 12:30N 44°06' E 028°40'0 0.0
2017-Aug-16 12:00N 44°06' E 028°40'0 0.0
2017-Aug-16 11:30N 44°06' E 028°40'0 0.0
2017-Aug-16 11:00N 44°06' E 028°40'0 0.0
2017-Aug-16 10:30N 44°06' E 028°40'0 0.0
2017-Aug-16 10:00N 44°06' E 028°40'0 0.0
2017-Aug-16 09:30N 44°06' E 028°40'0 0.0
2017-Aug-16 09:00N 44°06' E 028°40'0 0.0
2017-Aug-16 08:30N 44°06' E 028°40'0 0.0
2017-Aug-16 07:57N 44°06' E 028°40'0 0.0
2017-Aug-16 07:24N 44°06' E 028°40'0 0.0
2017-Aug-16 07:00N 44°06' E 028°40'1 1.0
2017-Aug-16 06:30N 44°06' E 028°40'2 4.7
2017-Aug-16 06:00N 44°05' E 028°43'611.9
2017-Aug-16 05:30N 44°05' E 028°51'714.7
2017-Aug-16 05:01N 44°06' E 029°01'815.2
2017-Aug-16 04:30N 44°10' E 029°10'815.1
2017-Aug-16 04:00N 44°15' E 029°18'815.3
2017-Aug-16 03:30N 44°19' E 029°27'815.3
2017-Aug-16 03:00N 44°24' E 029°36'12314.0
2017-Aug-15 18:11N 46°14' E 030°56'315.0
2017-Aug-15 17:59N 46°16' E 030°53'715.7
2017-Aug-15 17:30N 46°23' E 030°51'714.0
2017-Aug-15 17:00N 46°30' E 030°47'1 1.3
2017-Aug-15 16:00N 46°29' E 030°45'0 0.0
2017-Aug-15 15:30N 46°29' E 030°45'0 0.0
2017-Aug-15 14:00N 46°29' E 030°45'0 0.0
2017-Aug-15 12:12N 46°29' E 030°45'0 0.0
2017-Aug-15 12:00N 46°29' E 030°45'0 0.0
2017-Aug-15 11:27N 46°29' E 030°45'0 0.0
2017-Aug-15 11:00N 46°29' E 030°45'0 0.0
2017-Aug-15 10:30N 46°29' E 030°45'0 0.0
2017-Aug-15 10:00N 46°29' E 030°45'0 0.0
2017-Aug-15 09:30N 46°29' E 030°45'0 0.0
2017-Aug-15 09:00N 46°29' E 030°45'0 0.0
2017-Aug-15 08:30N 46°29' E 030°45'0 0.0
2017-Aug-15 08:00N 46°29' E 030°45'0 0.0
2017-Aug-15 07:23N 46°29' E 030°45'0 0.0
2017-Aug-15 06:59N 46°29' E 030°45'0 0.0
2017-Aug-15 06:29N 46°29' E 030°45'0 0.0
2017-Aug-15 05:59N 46°29' E 030°45'0 0.0
2017-Aug-15 05:29N 46°29' E 030°45'0 0.0
2017-Aug-15 04:59N 46°29' E 030°45'0 0.0
2017-Aug-15 04:29N 46°29' E 030°45'0 0.0
2017-Aug-15 03:59N 46°29' E 030°45'0 0.0
2017-Aug-15 03:30N 46°29' E 030°45'2 3.9
2017-Aug-15 03:00N 46°30' E 030°48'4 7.7
2017-Aug-15 02:30N 46°27' E 030°51'611.9
2017-Aug-15 02:00N 46°21' E 030°53'611.6
2017-Aug-15 01:30N 46°16' E 030°58'611.8
2017-Aug-15 01:00N 46°12' E 031°04'612.1
2017-Aug-15 00:30N 46°08' E 031°10'612.4
2017-Aug-15 00:00N 46°03' E 031°17'27812.1
2017-Aug-14 01:08N 44°27' E 037°26'515.1
2017-Aug-14 00:50N 44°29' E 037°32'515.2
2017-Aug-14 00:29N 44°31' E 037°38'714.6
2017-Aug-14 00:00N 44°35' E 037°47'611.4
2017-Aug-13 23:30N 44°40' E 037°50'3 6.8
2017-Aug-13 23:00N 44°43' E 037°49'0 0.0
2017-Aug-13 22:29N 44°43' E 037°49'0 0.0
2017-Aug-13 21:59N 44°43' E 037°49'0 0.0
2017-Aug-13 21:29N 44°43' E 037°49'0 0.0
2017-Aug-13 20:59N 44°43' E 037°49'0 0.0
2017-Aug-13 20:29N 44°43' E 037°49'0 0.0
2017-Aug-13 19:53N 44°43' E 037°49'0 0.0
2017-Aug-13 19:29N 44°43' E 037°49'0 0.0
2017-Aug-13 18:59N 44°43' E 037°49'0 0.0
2017-Aug-13 18:29N 44°43' E 037°49'0 0.0
2017-Aug-13 17:59N 44°43' E 037°49'0 0.0
2017-Aug-13 17:29N 44°43' E 037°49'0 0.0
2017-Aug-13 16:59N 44°43' E 037°49'0 0.0
2017-Aug-13 16:29N 44°43' E 037°49'0 0.0
2017-Aug-13 15:59N 44°43' E 037°49'0 0.0
2017-Aug-13 15:29N 44°43' E 037°49'0 0.0
2017-Aug-13 14:56N 44°43' E 037°49'0 0.0
2017-Aug-13 14:29N 44°43' E 037°49'0 0.0
2017-Aug-13 13:59N 44°43' E 037°49'0 0.0
2017-Aug-13 13:29N 44°43' E 037°49'0 0.0
2017-Aug-13 12:59N 44°43' E 037°49'0 0.0
2017-Aug-13 12:29N 44°43' E 037°49'0 0.0
2017-Aug-13 12:00N 44°43' E 037°49'0 0.0
2017-Aug-13 11:31N 44°43' E 037°49'0 0.0
2017-Aug-13 11:00N 44°43' E 037°49'0 0.0
2017-Aug-13 10:30N 44°43' E 037°49'0 0.0
2017-Aug-13 09:59N 44°43' E 037°49'0 0.0
2017-Aug-13 08:20N 44°43' E 037°49'0 0.0
2017-Aug-13 07:26N 44°43' E 037°49'0 0.0
2017-Aug-13 06:59N 44°43' E 037°49'0 0.0
2017-Aug-13 06:29N 44°43' E 037°49'0 0.0
2017-Aug-13 05:58N 44°43' E 037°49'0 0.0
2017-Aug-13 05:28N 44°43' E 037°49'0 0.0
2017-Aug-13 04:58N 44°43' E 037°49'0 0.0
2017-Aug-13 04:28N 44°43' E 037°49'0 0.0
2017-Aug-13 03:58N 44°43' E 037°49'0 0.0
2017-Aug-13 03:28N 44°43' E 037°49'0 0.0
2017-Aug-13 02:58N 44°43' E 037°49'0 0.0
2017-Aug-13 02:28N 44°43' E 037°49'0 0.0
2017-Aug-13 01:58N 44°43' E 037°49'0 0.0
2017-Aug-13 01:28N 44°43' E 037°49'0 0.0
2017-Aug-13 00:58N 44°43' E 037°49'0 0.0
2017-Aug-13 00:28N 44°43' E 037°49'0 0.0
2017-Aug-12 23:58N 44°43' E 037°49'0 0.0
2017-Aug-12 23:28N 44°43' E 037°49'0 0.0
2017-Aug-12 22:58N 44°43' E 037°49'0 0.0
2017-Aug-12 21:55N 44°43' E 037°49'0 0.0
2017-Aug-12 21:30N 44°43' E 037°49'1 1.3
2017-Aug-12 21:00N 44°43' E 037°48'4 7.8
2017-Aug-12 20:30N 44°39' E 037°51'5 9.1
2017-Aug-12 20:01N 44°35' E 037°51'714.8
2017-Aug-12 19:30N 44°31' E 037°42'815.2
2017-Aug-12 19:00N 44°28' E 037°32'2 3.1
2017-Aug-12 18:28N 44°27' E 037°30'0 0.6
2017-Aug-12 17:57N 44°27' E 037°30'0 0.6
2017-Aug-12 17:17N 44°27' E 037°31'0 0.6
2017-Aug-12 16:58N 44°27' E 037°31'0 0.6
2017-Aug-12 16:29N 44°28' E 037°31'0 0.6
2017-Aug-12 16:00N 44°28' E 037°32'0 0.5
2017-Aug-12 15:30N 44°28' E 037°32'0 0.4
2017-Aug-12 14:59N 44°28' E 037°32'0 0.4
2017-Aug-12 14:30N 44°28' E 037°32'0 0.4
2017-Aug-12 14:00N 44°28' E 037°33'0 0.5
2017-Aug-12 13:19N 44°27' E 037°33'0 0.7
2017-Aug-12 13:00N 44°27' E 037°33'0 0.7
2017-Aug-12 12:29N 44°27' E 037°33'1 0.7
2017-Aug-12 11:05N 44°26' E 037°34'0 0.9
2017-Aug-12 10:48N 44°26' E 037°34'0 0.9
2017-Aug-12 10:27N 44°26' E 037°34'0 1.0
2017-Aug-12 10:00N 44°25' E 037°35'1 1.1
2017-Aug-12 08:58N 44°24' E 037°35'0 1.0
2017-Aug-12 08:30N 44°24' E 037°36'1 1.5
2017-Aug-12 08:00N 44°24' E 037°36'4 8.2
2017-Aug-12 07:30N 44°28' E 037°35'1 1.2
2017-Aug-12 06:55N 44°28' E 037°36'1 1.0
2017-Aug-12 05:57N 44°28' E 037°37'0 1.0
2017-Aug-12 05:31N 44°28' E 037°38'0 0.9
2017-Aug-12 05:00N 44°27' E 037°39'0 1.0
2017-Aug-12 04:30N 44°27' E 037°39'0 0.9
2017-Aug-12 04:00N 44°27' E 037°40'0 0.6
2017-Aug-12 03:30N 44°27' E 037°40'1 1.7
2017-Aug-12 03:00N 44°27' E 037°39'612.1
2017-Aug-12 02:30N 44°24' E 037°32'814.8
2017-Aug-12 01:59N 44°20' E 037°22'2916.2
2017-Aug-12 00:12N 44°08' E 036°46'716.5
2017-Aug-11 23:44N 44°05' E 036°37'616.2
2017-Aug-11 23:23N 44°02' E 036°30'15516.4
2017-Aug-11 13:58N 42°51' E 033°20'715.7
2017-Aug-11 13:30N 42°48' E 033°11'3616.1
2017-Aug-11 11:17N 42°31' E 032°28'416.4
2017-Aug-11 11:00N 42°29' E 032°23'816.3
2017-Aug-11 10:30N 42°25' E 032°13'816.3
2017-Aug-11 10:00N 42°21' E 032°03'816.3
2017-Aug-11 09:30N 42°18' E 031°53'816.4
2017-Aug-11 09:00N 42°14' E 031°43'816.4
2017-Aug-11 08:30N 42°10' E 031°34'816.3
2017-Aug-11 08:00N 42°06' E 031°24'916.3
2017-Aug-11 07:28N 42°02' E 031°13'1716.5
2017-Aug-11 06:26N 41°55' E 030°53'1816.3
2017-Aug-11 05:20N 41°46' E 030°32'716.2
2017-Aug-11 04:56N 41°43' E 030°24'1016.2
2017-Aug-11 04:19N 41°39' E 030°12'516.3
2017-Aug-11 04:00N 41°36' E 030°06'816.2
2017-Aug-11 03:30N 41°32' E 029°57'916.2
2017-Aug-11 02:58N 41°29' E 029°46'716.2
2017-Aug-11 02:30N 41°25' E 029°37'1216.1
2017-Aug-11 01:47N 41°20' E 029°24'3410.7
2017-Aug-10 22:37N 40°53' E 028°55'111.9
2017-Aug-10 22:30N 40°53' E 028°54'711.5
2017-Aug-10 21:53N 40°48' E 028°47'  

Dump ship's entire track history